createdAt,value
2022-08-26T00:02:20.816Z,17.90
2022-08-26T00:07:24.585Z,17.80
2022-08-26T00:12:31.476Z,17.70
2022-08-26T00:17:40.354Z,17.80
2022-08-26T00:22:43.757Z,17.80
2022-08-26T00:27:46.488Z,17.80
2022-08-26T00:32:49.008Z,17.90
2022-08-26T00:37:52.319Z,17.80
2022-08-26T00:42:54.495Z,17.70
2022-08-26T00:48:00.975Z,17.60
2022-08-26T00:53:10.625Z,17.50
2022-08-26T00:58:12.444Z,17.60
2022-08-26T01:03:16.904Z,17.60
2022-08-26T01:08:20.084Z,17.70
2022-08-26T01:13:22.938Z,17.40
2022-08-26T01:18:26.356Z,17.40
2022-08-26T01:23:33.319Z,17.30
2022-08-26T01:28:37.222Z,17.20
2022-08-26T01:33:46.059Z,17.10
2022-08-26T01:38:49.352Z,16.80
2022-08-26T01:43:54.421Z,16.90
2022-08-26T01:48:59.702Z,16.70
2022-08-26T01:54:03.786Z,16.70
2022-08-26T01:59:12.239Z,16.60
2022-08-26T02:04:19.965Z,16.60
2022-08-26T02:09:24.843Z,16.60
2022-08-26T02:14:36.523Z,16.60
2022-08-26T02:19:47.264Z,16.50
2022-08-26T02:24:53.715Z,16.50
2022-08-26T02:29:58.580Z,16.40
2022-08-26T02:35:00.562Z,16.50
2022-08-26T02:40:06.917Z,16.60
2022-08-26T02:45:10.097Z,16.60
2022-08-26T02:50:12.142Z,16.50
2022-08-26T02:55:15.811Z,16.50
2022-08-26T03:00:17.876Z,16.40
2022-08-26T03:05:20.524Z,16.40
2022-08-26T03:10:23.720Z,16.30
2022-08-26T03:15:27.805Z,16.30
2022-08-26T03:20:29.658Z,16.50
2022-08-26T03:25:32.813Z,16.70
2022-08-26T03:30:34.596Z,16.80
2022-08-26T03:35:36.412Z,16.90
2022-08-26T03:40:42.188Z,17.00
2022-08-26T03:45:45.069Z,16.80
2022-08-26T03:50:48.761Z,16.70
2022-08-26T03:55:52.201Z,16.70
2022-08-26T04:00:55.372Z,16.70
2022-08-26T04:05:57.648Z,16.60
2022-08-26T04:11:00.799Z,16.60
2022-08-26T04:16:03.047Z,16.70
2022-08-26T04:21:05.464Z,16.70
2022-08-26T04:26:11.085Z,16.70
2022-08-26T04:31:13.967Z,16.80
2022-08-26T04:36:16.598Z,16.90
2022-08-26T04:41:20.598Z,16.80
2022-08-26T04:46:24.096Z,16.70
2022-08-26T04:51:25.921Z,16.70
2022-08-26T04:56:34.131Z,16.80
2022-08-26T05:01:39.534Z,16.90
2022-08-26T05:06:41.553Z,17.10
2022-08-26T05:11:44.700Z,17.30
2022-08-26T05:16:50.705Z,17.30
2022-08-26T05:21:52.548Z,17.40
2022-08-26T05:26:56.436Z,17.40
2022-08-26T05:31:58.486Z,17.50
2022-08-26T05:37:00.794Z,17.50
2022-08-26T05:42:04.421Z,17.50
2022-08-26T05:47:06.457Z,17.60
2022-08-26T05:52:08.859Z,17.70
2022-08-26T05:57:13.525Z,17.70
2022-08-26T06:02:15.396Z,17.70
2022-08-26T06:07:17.152Z,17.80
2022-08-26T06:12:21.618Z,17.90
2022-08-26T06:17:23.356Z,18.00
2022-08-26T06:22:25.407Z,18.10
2022-08-26T06:27:32.595Z,18.20
2022-08-26T06:32:34.700Z,18.40
2022-08-26T06:37:36.947Z,18.50
2022-08-26T06:42:40.064Z,18.70
2022-08-26T06:47:41.857Z,18.90
2022-08-26T06:52:43.672Z,19.00
2022-08-26T06:57:46.871Z,19.20
2022-08-26T07:02:48.699Z,19.40
2022-08-26T07:07:50.612Z,19.70
2022-08-26T07:12:53.816Z,20.10
2022-08-26T07:17:55.579Z,20.70
2022-08-26T07:22:57.340Z,21.30
2022-08-26T07:28:00.871Z,21.90
2022-08-26T07:33:05.399Z,22.30
2022-08-26T07:38:10.625Z,22.60
2022-08-26T07:43:14.899Z,22.80
2022-08-26T07:48:16.817Z,22.90
2022-08-26T07:53:24.166Z,23.10
2022-08-26T07:58:27.932Z,23.30
2022-08-26T08:03:29.701Z,23.20
2022-08-26T08:08:32.220Z,23.30
2022-08-26T08:13:36.086Z,23.50
2022-08-26T08:18:38.097Z,23.70
2022-08-26T08:23:42.229Z,24.00
2022-08-26T08:28:45.679Z,24.20
2022-08-26T08:33:49.831Z,24.50
2022-08-26T08:38:53.592Z,24.90
2022-08-26T08:43:59.994Z,25.30
2022-08-26T10:10:15.407Z,25.80
2022-08-26T10:15:19.989Z,25.60
2022-08-26T10:20:26.969Z,25.40
2022-08-26T10:25:37.389Z,25.30
2022-08-26T10:30:45.969Z,25.30
2022-08-26T10:35:51.957Z,25.30
2022-08-26T10:41:00.853Z,25.30
2022-08-26T10:46:07.029Z,25.30
2022-08-26T10:51:10.878Z,25.20
2022-08-26T10:56:40.560Z,25.10
2022-08-26T11:01:50.879Z,25.10
2022-08-26T11:07:22.988Z,25.10
2022-08-26T11:12:49.594Z,25.10
2022-08-26T11:17:57.987Z,25.20
2022-08-26T11:23:35.326Z,25.30
2022-08-26T11:28:39.388Z,25.40
2022-08-26T11:33:50.931Z,25.60
2022-08-26T11:38:54.397Z,25.80
2022-08-26T11:43:58.261Z,26.00
2022-08-26T11:49:05.776Z,26.20
2022-08-26T11:54:09.034Z,26.30
2022-08-26T11:59:23.202Z,26.50
2022-08-26T12:04:29.937Z,26.80
2022-08-26T12:09:33.773Z,27.20
2022-08-26T12:14:37.096Z,27.70
2022-08-26T12:19:41.624Z,28.60
2022-08-26T12:24:48.250Z,29.80
2022-08-26T12:30:04.932Z,30.10
2022-08-26T12:35:10.397Z,29.60
2022-08-26T12:40:34.125Z,29.40
2022-08-26T12:45:39.810Z,29.30
2022-08-26T12:50:47.918Z,29.40
2022-08-26T12:55:51.774Z,29.40
2022-08-26T13:01:22.448Z,30.30
2022-08-26T13:06:27.221Z,31.40
2022-08-26T13:11:31.061Z,31.30
2022-08-26T13:16:34.949Z,31.00
2022-08-26T13:21:43.284Z,30.70
2022-08-26T13:26:46.672Z,30.50
2022-08-26T13:31:51.073Z,30.00
2022-08-26T13:36:54.034Z,30.00
2022-08-26T13:41:55.901Z,30.00
2022-08-26T13:46:59.412Z,29.80
2022-08-26T13:52:01.321Z,29.60
2022-08-26T13:57:03.303Z,29.30
2022-08-26T14:02:06.580Z,29.00
2022-08-26T14:07:10.483Z,28.80
2022-08-26T14:12:12.387Z,28.60
2022-08-26T14:34:05.844Z,27.50
2022-08-26T14:45:08.343Z,25.40
2022-08-26T14:50:10.360Z,24.30
2022-08-26T14:55:26.653Z,23.60
2022-08-26T15:00:36.374Z,23.50
2022-08-26T15:06:03.659Z,23.60
2022-08-26T15:11:10.342Z,24.00
2022-08-26T15:22:03.467Z,24.00
2022-08-26T15:27:05.295Z,24.20
2022-08-26T15:32:07.447Z,24.00
2022-08-26T15:37:10.663Z,23.80
2022-08-26T15:42:12.468Z,23.60
2022-08-26T15:47:14.553Z,23.20
2022-08-26T15:57:37.104Z,22.80
2022-08-26T16:02:39.526Z,22.80
2022-08-26T16:07:41.272Z,22.80
2022-08-26T16:12:44.455Z,22.60
2022-08-26T16:17:46.258Z,22.50
2022-08-26T16:22:48.144Z,22.40
2022-08-26T16:27:51.468Z,22.40
2022-08-26T16:32:53.250Z,22.40
2022-08-26T16:37:55.107Z,22.30
2022-08-26T16:42:58.241Z,22.20
2022-08-26T16:48:00.027Z,22.30
2022-08-26T16:53:01.809Z,22.40
2022-08-26T16:58:05.546Z,22.50
2022-08-26T17:03:07.423Z,22.40
2022-08-26T17:08:09.425Z,22.40
2022-08-26T17:13:12.692Z,22.40
2022-08-26T17:18:35.543Z,22.30
2022-08-26T17:23:37.885Z,22.50
2022-08-26T17:28:41.142Z,22.40
2022-08-26T17:33:43.032Z,22.40
2022-08-26T17:38:44.894Z,22.50
2022-08-26T17:43:51.507Z,22.60
2022-08-26T17:48:53.393Z,22.60
2022-08-26T17:53:55.237Z,22.60
2022-08-26T17:59:03.470Z,22.70
2022-08-26T18:04:06.264Z,22.70
2022-08-26T18:09:08.084Z,22.70
2022-08-26T18:14:11.411Z,22.70
2022-08-26T18:19:13.172Z,22.70
2022-08-26T18:24:15.003Z,22.60
2022-08-26T18:29:19.449Z,22.50
2022-08-26T18:34:21.261Z,22.50
2022-08-26T18:39:23.497Z,22.50
2022-08-26T18:44:27.082Z,22.50
2022-08-26T18:49:29.022Z,22.50
2022-08-26T18:54:30.889Z,22.40
2022-08-26T18:59:34.108Z,22.30
2022-08-26T19:04:36.065Z,22.30
2022-08-26T19:09:37.826Z,22.20
2022-08-26T19:14:41.098Z,22.20
2022-08-26T19:19:42.913Z,22.10
2022-08-26T19:24:47.298Z,22.10
2022-08-26T19:29:50.531Z,22.10
2022-08-26T19:34:52.806Z,22.00
2022-08-26T19:39:54.585Z,21.80
2022-08-26T19:44:57.799Z,21.80
2022-08-26T19:49:59.668Z,21.70
2022-08-26T19:55:05.538Z,21.60
2022-08-26T20:00:10.887Z,21.50
2022-08-26T20:05:14.359Z,21.60
2022-08-26T20:10:18.042Z,21.50
2022-08-26T20:15:22.456Z,21.50
2022-08-26T20:20:32.717Z,21.40
2022-08-26T20:25:35.378Z,21.50
2022-08-26T20:30:38.539Z,21.50
2022-08-26T20:35:40.400Z,21.50
2022-08-26T20:40:42.353Z,21.40
2022-08-26T20:45:45.501Z,21.40
2022-08-26T20:50:47.317Z,21.30
2022-08-26T20:55:49.077Z,21.30
2022-08-26T21:00:52.302Z,21.30
2022-08-26T21:05:54.628Z,21.30
2022-08-26T21:10:56.455Z,21.30
2022-08-26T21:15:59.739Z,21.30
2022-08-26T21:21:03.892Z,21.30
2022-08-26T21:26:09.585Z,21.20
2022-08-26T21:31:16.250Z,21.10
2022-08-26T21:36:18.937Z,21.00
2022-08-26T21:41:21.586Z,20.90
2022-08-26T21:46:26.361Z,20.90
2022-08-26T21:51:30.020Z,20.90
2022-08-26T21:56:33.824Z,20.80
2022-08-26T22:01:37.192Z,20.70
2022-08-26T22:06:45.668Z,20.60
2022-08-26T22:11:47.741Z,20.50
2022-08-26T22:16:51.169Z,20.50
2022-08-26T22:21:54.905Z,20.40
2022-08-26T22:26:56.717Z,20.40
2022-08-26T22:32:00.507Z,20.40
2022-08-26T22:37:02.284Z,20.40
2022-08-26T22:42:04.403Z,20.30
2022-08-26T22:47:07.717Z,20.40
2022-08-26T22:52:09.544Z,20.40
2022-08-26T22:57:11.633Z,20.40
2022-08-26T23:02:14.797Z,20.40
2022-08-26T23:07:16.604Z,20.40
2022-08-26T23:12:18.426Z,20.40
2022-08-26T23:17:21.604Z,20.30
2022-08-26T23:22:23.571Z,20.30
2022-08-26T23:27:25.368Z,20.30
2022-08-26T23:32:28.547Z,20.30
2022-08-26T23:37:35.021Z,20.20
2022-08-26T23:42:38.002Z,20.20
2022-08-26T23:47:41.213Z,20.10
2022-08-26T23:52:43.226Z,20.00
2022-08-26T23:57:44.989Z,19.90
